createdAt,value
2018-02-11T00:01:08.770Z,0
2018-02-11T00:02:18.480Z,0
2018-02-11T00:03:28.464Z,0
2018-02-11T00:04:38.497Z,0
2018-02-11T00:05:48.480Z,0
2018-02-11T00:06:58.188Z,0
2018-02-11T00:08:07.912Z,0
2018-02-11T00:09:17.678Z,0
2018-02-11T00:10:27.662Z,0
2018-02-11T00:11:37.113Z,0
2018-02-11T00:12:46.877Z,0
2018-02-11T00:13:56.599Z,0
2018-02-11T00:15:06.099Z,0
2018-02-11T00:16:15.810Z,0
2018-02-11T00:17:25.795Z,0
2018-02-11T00:18:35.771Z,0
2018-02-11T00:19:45.752Z,0
2018-02-11T00:20:55.462Z,0
2018-02-11T00:22:05.178Z,0
2018-02-11T00:23:14.890Z,0
2018-02-11T00:24:24.867Z,0
2018-02-11T00:25:34.588Z,0
2018-02-11T00:26:44.570Z,0
2018-02-11T00:27:54.544Z,0
2018-02-11T00:29:04.535Z,0
2018-02-11T00:30:14.518Z,0
2018-02-11T00:31:24.230Z,0
2018-02-11T00:32:33.676Z,0
2018-02-11T00:33:43.393Z,0
2018-02-11T00:34:53.381Z,0
2018-02-11T00:36:02.829Z,0
2018-02-11T00:37:12.807Z,0
2018-02-11T00:38:22.525Z,0
2018-02-11T00:39:32.241Z,0
2018-02-11T00:40:42.215Z,0
2018-02-11T00:41:52.196Z,0
2018-02-11T00:43:02.170Z,0
2018-02-11T00:44:11.887Z,0
2018-02-11T00:45:21.866Z,0
2018-02-11T00:46:31.050Z,0
2018-02-11T00:47:41.030Z,0
2018-02-11T00:48:51.009Z,0
2018-02-11T00:50:00.719Z,0
2018-02-11T00:51:10.180Z,0
2018-02-11T00:52:20.205Z,0
2018-02-11T00:53:29.917Z,0
2018-02-11T00:54:39.633Z,0
2018-02-11T00:55:49.714Z,0
2018-02-11T00:56:59.698Z,0
2018-02-11T00:58:09.415Z,0
2018-02-11T00:59:19.389Z,0
2018-02-11T01:00:29.107Z,0
2018-02-11T01:01:39.088Z,0
2018-02-11T01:02:49.071Z,0
2018-02-11T01:03:59.059Z,0
2018-02-11T01:05:08.514Z,0
2018-02-11T01:06:18.501Z,0
2018-02-11T01:07:27.950Z,0
2018-02-11T01:08:37.664Z,0
2018-02-11T01:09:47.643Z,0
2018-02-11T01:10:57.100Z,0
2018-02-11T01:12:06.548Z,0
2018-02-11T01:13:15.732Z,0
2018-02-11T01:14:25.717Z,0
2018-02-11T01:15:35.170Z,0
2018-02-11T01:16:45.152Z,0
2018-02-11T01:17:55.134Z,0
2018-02-11T01:19:05.134Z,0
2018-02-11T01:20:14.585Z,0
2018-02-11T01:21:24.301Z,0
2018-02-11T01:22:34.013Z,0
2018-02-11T01:23:43.988Z,0
2018-02-11T01:24:54.014Z,0
2018-02-11T01:26:03.992Z,0
2018-02-11T01:27:13.445Z,0
2018-02-11T01:28:23.424Z,0
2018-02-11T01:29:33.420Z,0
2018-02-11T01:30:43.417Z,0
2018-02-11T01:31:53.135Z,0
2018-02-11T01:33:03.113Z,0
2018-02-11T01:34:12.560Z,0
2018-02-11T01:35:22.536Z,0
2018-02-11T01:36:31.984Z,0
2018-02-11T01:37:41.697Z,0
2018-02-11T01:38:51.414Z,0
2018-02-11T01:40:01.228Z,0
2018-02-11T01:41:11.211Z,0
2018-02-11T01:42:21.198Z,0
2018-02-11T01:43:30.915Z,0
2018-02-11T01:44:40.933Z,0
2018-02-11T01:45:50.906Z,0
2018-02-11T01:47:00.890Z,0
2018-02-11T01:48:10.875Z,0
2018-02-11T01:49:20.850Z,0
2018-02-11T01:50:30.834Z,0
2018-02-11T01:51:40.810Z,0
2018-02-11T01:52:50.793Z,0
2018-02-11T01:54:00.510Z,0
2018-02-11T01:55:10.254Z,0
2018-02-11T01:56:19.965Z,0
2018-02-11T01:57:29.414Z,0
2018-02-11T01:58:39.125Z,0
2018-02-11T01:59:48.892Z,0
2018-02-11T02:00:58.607Z,0
2018-02-11T02:02:08.590Z,0
2018-02-11T02:03:18.568Z,0
2018-02-11T02:04:28.016Z,0
2018-02-11T02:05:37.996Z,0
2018-02-11T02:06:47.977Z,0
2018-02-11T02:07:57.691Z,0
2018-02-11T02:09:07.678Z,0
2018-02-11T02:10:17.701Z,0
2018-02-11T02:11:27.513Z,0
2018-02-11T02:12:37.280Z,0
2018-02-11T02:13:47.259Z,0
2018-02-11T02:14:57.236Z,0
2018-02-11T02:16:07.223Z,0
2018-02-11T02:17:17.205Z,0
2018-02-11T02:18:27.186Z,0
2018-02-11T02:19:37.165Z,0
2018-02-11T02:20:47.149Z,0
2018-02-11T02:21:57.129Z,0
2018-02-11T02:23:07.105Z,0
2018-02-11T02:24:16.554Z,0
2018-02-11T02:25:26.563Z,0
2018-02-11T02:26:36.537Z,0
2018-02-11T02:27:46.520Z,0
2018-02-11T02:28:56.233Z,0
2018-02-11T02:30:06.217Z,0
2018-02-11T02:31:15.934Z,0
2018-02-11T02:32:25.656Z,0
2018-02-11T02:33:35.375Z,0
2018-02-11T02:34:45.410Z,0
2018-02-11T02:35:55.394Z,0
2018-02-11T02:37:05.432Z,0
2018-02-11T02:38:15.415Z,0
2018-02-11T02:39:25.130Z,0
2018-02-11T02:40:34.584Z,0
2018-02-11T02:41:44.296Z,0
2018-02-11T02:42:54.278Z,0
2018-02-11T02:44:03.999Z,0
2018-02-11T02:45:13.720Z,0
2018-02-11T02:46:23.435Z,0
2018-02-11T02:47:33.416Z,0
2018-02-11T02:48:43.399Z,0
2018-02-11T02:49:53.390Z,0
2018-02-11T02:51:03.105Z,0
2018-02-11T02:52:12.553Z,0
2018-02-11T02:53:22.008Z,0
2018-02-11T02:54:31.994Z,0
2018-02-11T02:55:41.980Z,0
2018-02-11T02:56:51.962Z,0
2018-02-11T02:58:01.692Z,0
2018-02-11T02:59:11.411Z,0
2018-02-11T03:00:21.396Z,0
2018-02-11T03:01:31.121Z,0
2018-02-11T03:02:41.106Z,0
2018-02-11T03:03:51.145Z,0
2018-02-11T03:05:00.866Z,0
2018-02-11T03:06:10.843Z,0
2018-02-11T03:07:20.817Z,0
2018-02-11T03:08:30.528Z,0
2018-02-11T03:09:40.498Z,0
2018-02-11T03:10:50.210Z,0
2018-02-11T03:11:59.979Z,0
2018-02-11T03:13:09.699Z,0
2018-02-11T03:14:19.143Z,0
2018-02-11T03:15:29.172Z,0
2018-02-11T03:16:38.887Z,0
2018-02-11T03:17:48.866Z,0
2018-02-11T03:18:58.317Z,0
2018-02-11T03:20:08.291Z,0
2018-02-11T03:21:18.320Z,0
2018-02-11T03:22:28.034Z,0
2018-02-11T03:23:38.017Z,0
2018-02-11T03:24:47.735Z,0
2018-02-11T03:25:57.720Z,0
2018-02-11T03:27:07.482Z,0
2018-02-11T03:28:17.462Z,0
2018-02-11T03:29:27.173Z,0
2018-02-11T03:30:36.896Z,0
2018-02-11T03:31:46.869Z,0
2018-02-11T03:32:57.003Z,0
2018-02-11T03:34:06.992Z,0
2018-02-11T03:35:16.703Z,0
2018-02-11T03:36:26.420Z,0
2018-02-11T03:37:36.392Z,0
2018-02-11T03:38:46.493Z,0
2018-02-11T03:39:56.204Z,0
2018-02-11T03:41:06.184Z,0
2018-02-11T03:42:16.169Z,0
2018-02-11T03:43:26.154Z,0
2018-02-11T03:44:36.124Z,0
2018-02-11T03:45:45.838Z,0
2018-02-11T03:46:55.813Z,0
2018-02-11T03:48:05.792Z,0
2018-02-11T03:49:15.505Z,0
2018-02-11T03:50:25.489Z,0
2018-02-11T03:51:35.521Z,0
2018-02-11T03:52:45.243Z,0
2018-02-11T03:53:55.223Z,0
2018-02-11T03:55:05.202Z,0
2018-02-11T03:56:15.194Z,0
2018-02-11T03:57:24.648Z,0
2018-02-11T03:58:34.626Z,0
2018-02-11T03:59:44.335Z,0
2018-02-11T04:03:32.115Z,0
2018-02-11T04:04:42.136Z,0
2018-02-11T04:05:52.119Z,0
2018-02-11T04:07:01.832Z,0
2018-02-11T04:08:11.831Z,0
2018-02-11T04:09:21.541Z,0
2018-02-11T04:10:31.286Z,0
2018-02-11T04:11:41.006Z,0
2018-02-11T04:12:50.725Z,0
2018-02-11T04:14:00.441Z,0
2018-02-11T04:15:10.206Z,0
2018-02-11T04:16:20.186Z,0
2018-02-11T04:17:30.165Z,0
2018-02-11T04:18:39.614Z,0
2018-02-11T04:19:49.593Z,0
2018-02-11T04:20:59.622Z,0
2018-02-11T04:22:09.333Z,0
2018-02-11T04:23:19.041Z,0
2018-02-11T04:24:29.014Z,0
2018-02-11T04:25:38.988Z,0
2018-02-11T04:26:48.960Z,0
2018-02-11T04:27:58.940Z,0
2018-02-11T04:29:08.395Z,0
2018-02-11T04:30:18.102Z,0
2018-02-11T04:31:27.812Z,0
2018-02-11T04:32:37.532Z,0
2018-02-11T04:33:47.511Z,0
2018-02-11T04:34:57.486Z,0
2018-02-11T04:36:07.202Z,0
2018-02-11T04:37:17.187Z,0
2018-02-11T04:38:26.900Z,0
2018-02-11T04:39:36.882Z,0
2018-02-11T04:40:46.865Z,0
2018-02-11T04:41:56.842Z,0
2018-02-11T04:43:06.820Z,0
2018-02-11T04:44:16.585Z,0
2018-02-11T04:45:26.568Z,0
2018-02-11T04:46:36.556Z,0
2018-02-11T04:47:46.277Z,0
2018-02-11T04:48:55.990Z,0
2018-02-11T04:50:05.971Z,0
2018-02-11T04:51:15.694Z,0
2018-02-11T04:52:25.405Z,0
2018-02-11T04:53:35.128Z,0
2018-02-11T04:54:44.572Z,0
2018-02-11T04:55:54.554Z,0
2018-02-11T04:57:04.268Z,0
2018-02-11T04:58:13.985Z,0
2018-02-11T04:59:23.966Z,0
2018-02-11T05:00:33.946Z,0
2018-02-11T05:01:43.928Z,0
2018-02-11T05:02:53.381Z,0
2018-02-11T05:04:03.360Z,0
2018-02-11T05:05:13.076Z,0
2018-02-11T05:06:22.789Z,0
2018-02-11T05:07:32.337Z,0
2018-02-11T05:08:42.321Z,0
2018-02-11T05:09:52.035Z,0
2018-02-11T05:11:02.011Z,0
2018-02-11T05:12:12.000Z,0
2018-02-11T05:13:22.079Z,0
2018-02-11T05:14:31.265Z,0
2018-02-11T05:15:40.988Z,0
2018-02-11T05:16:50.710Z,0
2018-02-11T05:18:00.686Z,0
2018-02-11T05:19:10.678Z,0
2018-02-11T05:20:20.665Z,0
2018-02-11T05:21:30.737Z,0
2018-02-11T05:22:40.726Z,0
2018-02-11T05:23:50.712Z,0
2018-02-11T05:25:00.430Z,0
2018-02-11T05:26:10.151Z,0
2018-02-11T05:27:20.129Z,0
2018-02-11T05:28:29.581Z,0
2018-02-11T05:29:39.029Z,0
2018-02-11T05:30:48.793Z,0
2018-02-11T05:31:58.771Z,0
2018-02-11T05:33:08.491Z,0
2018-02-11T05:34:18.466Z,0
2018-02-11T05:35:27.919Z,0
2018-02-11T05:36:38.002Z,0
2018-02-11T05:37:47.714Z,0
2018-02-11T05:38:57.427Z,0
2018-02-11T05:40:07.144Z,0
2018-02-11T05:41:17.133Z,0
2018-02-11T05:42:26.639Z,0
2018-02-11T05:43:36.357Z,0
2018-02-11T05:44:46.341Z,0
2018-02-11T05:45:56.065Z,0
2018-02-11T05:47:05.776Z,0
2018-02-11T05:48:15.492Z,0
2018-02-11T05:49:25.208Z,0
2018-02-11T05:50:34.927Z,0
2018-02-11T05:51:44.641Z,0
2018-02-11T05:52:54.617Z,0
2018-02-11T05:54:04.599Z,0
2018-02-11T05:55:14.611Z,0
2018-02-11T05:56:24.058Z,0
2018-02-11T05:57:33.540Z,0
2018-02-11T05:58:43.511Z,0
2018-02-11T05:59:53.223Z,0
2018-02-11T06:01:03.257Z,0
2018-02-11T06:02:12.971Z,0
2018-02-11T06:03:22.418Z,0
2018-02-11T06:04:32.396Z,0
2018-02-11T06:05:42.376Z,0
2018-02-11T06:06:52.367Z,0
2018-02-11T06:08:02.348Z,0
2018-02-11T06:09:12.065Z,0
2018-02-11T06:10:22.045Z,0
2018-02-11T06:11:32.026Z,0
2018-02-11T06:12:42.007Z,0
2018-02-11T06:13:51.767Z,0
2018-02-11T06:15:01.749Z,0
2018-02-11T06:16:11.222Z,0
2018-02-11T06:17:21.203Z,0
2018-02-11T06:18:30.918Z,0
2018-02-11T06:19:40.631Z,0
2018-02-11T06:20:50.612Z,0
2018-02-11T06:22:00.328Z,0
2018-02-11T06:23:10.051Z,0
2018-02-11T06:24:20.025Z,0
2018-02-11T06:25:29.741Z,0
2018-02-11T06:26:39.460Z,0
2018-02-11T06:27:49.437Z,0
2018-02-11T06:28:59.204Z,0
2018-02-11T06:30:09.183Z,0
2018-02-11T06:31:18.631Z,4
2018-02-11T06:32:28.613Z,4
2018-02-11T06:33:37.796Z,0
2018-02-11T06:34:47.504Z,0
2018-02-11T06:35:57.219Z,4
2018-02-11T06:37:07.199Z,4
2018-02-11T06:38:17.178Z,4
2018-02-11T06:39:26.364Z,4
2018-02-11T06:40:36.393Z,4
2018-02-11T06:41:46.368Z,4
2018-02-11T06:42:56.342Z,8
2018-02-11T06:44:06.320Z,4
2018-02-11T06:45:16.295Z,8
2018-02-11T06:46:26.274Z,8
2018-02-11T06:47:36.307Z,12
2018-02-11T06:48:46.283Z,12
2018-02-11T06:49:56.267Z,12
2018-02-11T06:51:06.250Z,12
2018-02-11T06:52:16.235Z,16
2018-02-11T06:53:26.211Z,16
2018-02-11T06:54:36.192Z,20
2018-02-11T06:55:46.172Z,24
2018-02-11T06:56:56.149Z,28
2018-02-11T06:58:06.129Z,28
2018-02-11T06:59:16.111Z,32
2018-02-11T07:00:26.102Z,36
2018-02-11T07:01:36.079Z,40
2018-02-11T07:02:45.789Z,44
2018-02-11T07:03:55.553Z,48
2018-02-11T07:05:05.005Z,56
2018-02-11T07:06:14.715Z,64
2018-02-11T07:07:24.431Z,68
2018-02-11T07:08:33.877Z,76
2018-02-11T07:09:43.859Z,88
2018-02-11T07:10:53.330Z,92
2018-02-11T07:12:03.313Z,100
2018-02-11T07:13:13.306Z,112
2018-02-11T07:14:23.285Z,124
2018-02-11T07:15:33.052Z,128
2018-02-11T07:16:43.042Z,144
2018-02-11T07:17:53.134Z,148
2018-02-11T07:19:02.583Z,152
2018-02-11T07:20:12.558Z,160
2018-02-11T07:21:22.545Z,164
2018-02-11T07:22:32.253Z,180
2018-02-11T07:23:41.703Z,200
2018-02-11T07:24:51.427Z,212
2018-02-11T07:26:01.408Z,220
2018-02-11T07:27:11.383Z,228
2018-02-11T07:28:21.359Z,244
2018-02-11T07:29:31.073Z,268
2018-02-11T07:30:41.051Z,288
2018-02-11T07:31:50.767Z,296
2018-02-11T07:33:00.804Z,300
2018-02-11T07:34:10.520Z,320
2018-02-11T07:35:20.242Z,340
2018-02-11T07:36:29.428Z,360
2018-02-11T07:37:39.143Z,384
2018-02-11T07:38:48.859Z,416
2018-02-11T07:39:58.583Z,460
2018-02-11T07:41:08.301Z,488
2018-02-11T07:42:18.279Z,488
2018-02-11T07:43:27.729Z,492
2018-02-11T07:44:37.716Z,488
2018-02-11T07:45:47.693Z,508
2018-02-11T07:46:57.674Z,556
2018-02-11T07:48:06.859Z,616
2018-02-11T07:49:16.578Z,660
2018-02-11T07:50:26.396Z,712
2018-02-11T07:51:36.118Z,728
2018-02-11T07:52:46.101Z,776
2018-02-11T07:53:56.075Z,840
2018-02-11T07:55:06.060Z,888
2018-02-11T07:56:15.618Z,968
2018-02-11T07:57:25.338Z,996
2018-02-11T07:58:35.078Z,1028
2018-02-11T07:59:45.053Z,1156
2018-02-11T08:00:55.035Z,1136
2018-02-11T08:02:04.753Z,1112
2018-02-11T08:03:14.474Z,1164
2018-02-11T08:04:24.185Z,1224
2018-02-11T08:05:33.904Z,1296
2018-02-11T08:06:43.356Z,1340
2018-02-11T08:07:53.077Z,1388
2018-02-11T08:09:03.067Z,1432
2018-02-11T08:10:12.520Z,1400
2018-02-11T08:11:21.966Z,1404
2018-02-11T08:12:31.680Z,1444
2018-02-11T08:13:41.716Z,1468
2018-02-11T08:14:51.699Z,1468
2018-02-11T08:16:01.701Z,1500
2018-02-11T08:17:11.683Z,1532
2018-02-11T08:18:21.662Z,1560
2018-02-11T08:19:31.642Z,1572
2018-02-11T08:20:41.093Z,1596
2018-02-11T08:21:50.810Z,1648
2018-02-11T08:23:00.579Z,1676
2018-02-11T08:24:10.566Z,1692
2018-02-11T08:25:20.547Z,1744
2018-02-11T08:26:30.617Z,1740
2018-02-11T08:27:40.605Z,1752
2018-02-11T08:28:50.320Z,1792
2018-02-11T08:30:00.301Z,1812
2018-02-11T08:31:10.287Z,1820
2018-02-11T08:32:20.269Z,1808
2018-02-11T08:33:30.256Z,1788
2018-02-11T08:34:40.236Z,1776
2018-02-11T08:35:49.955Z,1772
2018-02-11T08:36:59.672Z,1776
2018-02-11T08:38:09.124Z,1760
2018-02-11T08:39:18.573Z,1780
2018-02-11T08:40:28.292Z,1792
2018-02-11T08:41:38.295Z,1784
2018-02-11T08:42:48.062Z,1780
2018-02-11T08:43:58.051Z,1752
2018-02-11T08:45:07.507Z,1752
2018-02-11T08:46:17.220Z,1772
2018-02-11T08:47:27.200Z,1812
2018-02-11T08:48:37.232Z,1832
2018-02-11T08:49:46.687Z,1888
2018-02-11T08:50:56.416Z,1972
2018-02-11T08:52:06.403Z,1976
2018-02-11T08:53:16.386Z,2008
2018-02-11T08:54:26.107Z,2068
2018-02-11T08:55:36.085Z,2092
2018-02-11T08:56:46.061Z,2100
2018-02-11T08:57:55.827Z,2116
2018-02-11T08:59:05.803Z,2108
2018-02-11T09:00:15.253Z,2116
2018-02-11T09:01:25.234Z,2152
2018-02-11T09:02:34.953Z,2160
2018-02-11T09:03:44.681Z,2188
2018-02-11T09:04:54.404Z,2188
2018-02-11T09:06:04.382Z,2244
2018-02-11T09:07:14.406Z,2256
2018-02-11T09:08:24.123Z,2356
2018-02-11T09:09:34.103Z,2392
2018-02-11T09:10:43.287Z,2456
2018-02-11T09:11:53.271Z,2532
2018-02-11T09:13:03.256Z,2544
2018-02-11T09:14:12.710Z,2656
2018-02-11T09:15:22.691Z,2696
2018-02-11T09:16:32.142Z,2676
2018-02-11T09:17:41.591Z,2716
2018-02-11T09:18:51.308Z,2668
2018-02-11T09:20:01.289Z,2660
2018-02-11T09:21:11.274Z,2740
2018-02-11T09:22:21.261Z,2744
2018-02-11T09:23:31.034Z,2756
2018-02-11T09:24:41.027Z,2724
2018-02-11T09:25:51.010Z,2812
2018-02-11T09:27:00.739Z,2816
2018-02-11T09:28:10.187Z,2948
2018-02-11T09:29:20.171Z,3084
2018-02-11T09:30:30.149Z,3108
2018-02-11T09:31:39.599Z,3028
2018-02-11T09:32:49.636Z,2956
2018-02-11T09:33:59.352Z,2996
2018-02-11T09:35:09.346Z,3172
2018-02-11T09:36:19.061Z,3140
2018-02-11T09:37:28.516Z,3128
2018-02-11T09:38:38.243Z,3184
2018-02-11T09:39:48.323Z,3208
2018-02-11T09:40:57.825Z,3244
2018-02-11T09:42:07.543Z,3244
2018-02-11T09:43:17.264Z,3236
2018-02-11T09:44:27.254Z,3288
2018-02-11T09:45:37.228Z,3316
2018-02-11T09:46:46.942Z,3504
2018-02-11T09:47:56.652Z,3608
2018-02-11T09:49:06.629Z,3568
2018-02-11T09:50:16.350Z,3684
2018-02-11T09:51:25.836Z,3796
2018-02-11T09:52:35.285Z,3900
2018-02-11T09:53:45.270Z,3904
2018-02-11T09:54:54.986Z,3960
2018-02-11T09:56:04.173Z,4112
2018-02-11T09:57:13.621Z,3984
2018-02-11T09:58:23.609Z,3888
2018-02-11T09:59:33.589Z,3968
2018-02-11T10:00:43.040Z,3972
2018-02-11T10:01:52.761Z,3928
2018-02-11T10:03:02.479Z,3820
2018-02-11T10:04:11.930Z,3548
2018-02-11T10:05:21.912Z,3380
2018-02-11T10:06:31.375Z,3312
2018-02-11T10:07:41.434Z,3252
2018-02-11T10:08:51.148Z,3104
2018-02-11T10:10:01.127Z,3028
2018-02-11T10:11:10.583Z,2932
2018-02-11T10:12:20.303Z,2796
2018-02-11T10:13:30.016Z,2728
2018-02-11T10:14:39.732Z,2644
2018-02-11T10:15:49.709Z,2588
2018-02-11T10:16:59.433Z,2576
2018-02-11T10:18:09.413Z,2600
2018-02-11T10:19:19.124Z,2540
2018-02-11T10:20:28.577Z,2568
2018-02-11T10:21:38.352Z,2696
2018-02-11T10:22:48.066Z,2624
2018-02-11T10:23:57.783Z,2560
2018-02-11T10:25:07.496Z,2588
2018-02-11T10:26:17.211Z,2592
2018-02-11T10:27:27.250Z,2568
2018-02-11T10:28:37.257Z,2468
2018-02-11T10:29:47.241Z,2420
2018-02-11T10:30:57.219Z,2380
2018-02-11T10:32:06.988Z,2436
2018-02-11T10:33:16.537Z,2476
2018-02-11T10:34:25.986Z,2568
2018-02-11T10:35:35.700Z,2704
2018-02-11T10:36:45.415Z,2884
2018-02-11T10:37:55.393Z,2936
2018-02-11T10:39:05.106Z,3112
2018-02-11T10:40:14.823Z,3232
2018-02-11T10:41:24.536Z,3372
2018-02-11T10:42:34.511Z,3524
2018-02-11T10:43:43.965Z,3628
2018-02-11T10:44:53.994Z,3688
2018-02-11T10:46:03.971Z,3716
2018-02-11T10:47:14.008Z,3864
2018-02-11T10:48:23.998Z,3816
2018-02-11T10:49:33.717Z,3856
2018-02-11T10:50:43.802Z,3644
2018-02-11T10:51:53.787Z,3460
2018-02-11T10:53:03.771Z,3472
2018-02-11T10:54:13.490Z,3500
2018-02-11T10:55:23.203Z,3484
2018-02-11T10:56:33.183Z,3420
2018-02-11T10:57:42.896Z,3420
2018-02-11T10:58:52.345Z,3432
2018-02-11T11:00:02.326Z,3548
2018-02-11T11:01:12.310Z,3544
2018-02-11T11:02:22.077Z,3420
2018-02-11T11:03:31.527Z,3400
2018-02-11T11:04:41.503Z,3400
2018-02-11T11:05:51.210Z,3264
2018-02-11T11:07:00.924Z,3136
2018-02-11T11:08:10.653Z,3124
2018-02-11T11:09:20.372Z,3068
2018-02-11T11:10:30.362Z,2988
2018-02-11T11:11:40.086Z,2888
2018-02-11T11:12:49.821Z,2808
2018-02-11T11:13:59.534Z,2832
2018-02-11T11:15:09.513Z,2760
2018-02-11T11:16:19.018Z,2716
2018-02-11T11:17:28.728Z,2740
2018-02-11T11:18:38.704Z,2660
2018-02-11T11:19:48.682Z,2700
2018-02-11T11:20:58.772Z,2740
2018-02-11T11:22:08.501Z,2692
2018-02-11T11:23:18.486Z,2848
2018-02-11T11:24:28.470Z,2976
2018-02-11T11:25:38.448Z,2928
2018-02-11T11:26:48.484Z,2824
2018-02-11T11:27:58.516Z,2860
2018-02-11T11:29:08.260Z,2976
2018-02-11T11:30:17.976Z,2944
2018-02-11T11:31:28.022Z,2980
2018-02-11T11:32:38.008Z,3036
2018-02-11T11:33:47.984Z,3036
2018-02-11T11:34:57.700Z,3016
2018-02-11T11:36:07.677Z,3056
2018-02-11T11:37:17.137Z,3088
2018-02-11T11:38:26.858Z,3152
2018-02-11T11:39:36.315Z,3152
2018-02-11T11:40:46.293Z,3140
2018-02-11T11:41:56.316Z,3220
2018-02-11T11:43:05.816Z,3288
2018-02-11T11:44:15.793Z,3340
2018-02-11T11:45:25.777Z,3332
2018-02-11T11:46:35.782Z,3312
2018-02-11T11:47:45.776Z,3332
2018-02-11T11:48:55.759Z,3308
2018-02-11T11:50:05.471Z,3268
2018-02-11T11:51:14.659Z,3236
2018-02-11T11:52:24.639Z,3172
2018-02-11T11:53:34.621Z,3176
2018-02-11T11:54:44.603Z,3256
2018-02-11T11:55:54.050Z,3236
2018-02-11T11:57:03.496Z,3244
2018-02-11T11:58:13.210Z,3212
2018-02-11T11:59:23.191Z,3240
2018-02-11T12:00:32.375Z,3240
2018-02-11T12:01:42.088Z,3272
2018-02-11T12:02:51.804Z,3316
2018-02-11T12:04:01.776Z,3308
2018-02-11T12:05:11.490Z,3332
2018-02-11T12:06:21.470Z,3340
2018-02-11T12:07:31.185Z,3380
2018-02-11T12:08:41.165Z,3540
2018-02-11T12:09:51.147Z,3492
2018-02-11T12:11:00.866Z,3464
2018-02-11T12:12:10.631Z,3388
2018-02-11T12:13:20.398Z,3308
2018-02-11T12:14:29.587Z,3216
2018-02-11T12:15:39.298Z,3224
2018-02-11T12:16:49.012Z,3332
2018-02-11T12:17:58.989Z,3464
2018-02-11T12:19:08.968Z,3416
2018-02-11T12:20:18.953Z,3492
2018-02-11T12:21:28.994Z,3564
2018-02-11T12:22:38.441Z,3540
2018-02-11T12:23:48.418Z,3544
2018-02-11T12:24:58.404Z,3592
2018-02-11T12:26:08.378Z,3696
2018-02-11T12:27:18.094Z,3704
2018-02-11T12:28:27.544Z,3784
2018-02-11T12:29:37.257Z,3820
2018-02-11T12:30:47.238Z,3844
2018-02-11T12:31:56.952Z,3804
2018-02-11T12:33:06.935Z,3724
2018-02-11T12:34:16.650Z,3632
2018-02-11T12:35:26.359Z,3628
2018-02-11T12:36:36.335Z,3624
2018-02-11T12:37:45.258Z,3624
2018-02-11T12:38:54.973Z,3620
2018-02-11T12:40:04.426Z,3836
2018-02-11T12:41:14.199Z,3760
2018-02-11T12:42:23.980Z,3680
2018-02-11T12:43:33.430Z,3616
2018-02-11T12:44:43.144Z,3544
2018-02-11T12:45:52.671Z,3416
2018-02-11T12:47:02.656Z,3344
2018-02-11T12:48:12.374Z,3264
2018-02-11T12:49:22.349Z,3260
2018-02-11T12:50:32.327Z,3284
2018-02-11T12:51:42.309Z,3332
2018-02-11T12:52:52.287Z,3308
2018-02-11T12:54:01.998Z,3288
2018-02-11T12:55:11.185Z,3256
2018-02-11T12:56:21.166Z,3228
2018-02-11T12:57:30.894Z,3184
2018-02-11T12:58:40.929Z,3224
2018-02-11T12:59:50.958Z,3184
2018-02-11T13:01:00.672Z,3128
2018-02-11T13:02:10.392Z,3072
2018-02-11T13:03:20.107Z,3024
2018-02-11T13:04:30.092Z,2984
2018-02-11T13:05:40.071Z,2956
2018-02-11T13:06:49.789Z,2860
2018-02-11T13:07:59.815Z,2812
2018-02-11T13:09:09.264Z,2816
2018-02-11T13:10:18.719Z,2804
2018-02-11T13:11:28.428Z,2784
2018-02-11T13:12:38.412Z,2708
2018-02-11T13:13:48.278Z,2660
2018-02-11T13:14:57.990Z,2620
2018-02-11T13:16:07.720Z,2568
2018-02-11T13:17:17.694Z,2560
2018-02-11T13:18:27.677Z,2548
2018-02-11T13:19:37.671Z,2520
2018-02-11T13:20:47.649Z,2532
2018-02-11T13:21:57.463Z,2548
2018-02-11T13:23:07.241Z,2572
2018-02-11T13:24:16.953Z,2592
2018-02-11T13:25:26.405Z,2632
2018-02-11T13:26:36.120Z,2672
2018-02-11T13:27:45.833Z,2736
2018-02-11T13:28:55.551Z,2700
2018-02-11T13:30:05.000Z,2740
2018-02-11T13:31:14.720Z,2696
2018-02-11T13:32:24.442Z,2744
2018-02-11T13:33:34.172Z,2704
2018-02-11T13:34:43.879Z,2636
2018-02-11T13:35:53.860Z,2596
2018-02-11T13:37:03.578Z,2572
2018-02-11T13:38:13.305Z,2548
2018-02-11T13:39:23.011Z,2532
2018-02-11T13:40:32.728Z,2524
2018-02-11T13:41:41.935Z,2492
2018-02-11T13:42:51.390Z,2480
2018-02-11T13:44:01.107Z,2448
2018-02-11T13:45:10.815Z,2436
2018-02-11T13:46:20.529Z,2444
2018-02-11T13:47:30.518Z,2456
2018-02-11T13:48:39.979Z,2400
2018-02-11T13:49:49.695Z,2356
2018-02-11T13:50:59.792Z,2324
2018-02-11T13:52:09.239Z,2260
2018-02-11T13:53:19.033Z,2204
2018-02-11T13:54:29.018Z,2212
2018-02-11T13:55:38.730Z,2212
2018-02-11T13:56:48.451Z,2200
2018-02-11T13:57:57.903Z,2220
2018-02-11T13:59:07.354Z,2308
2018-02-11T14:00:17.066Z,2512
2018-02-11T14:01:26.778Z,2656
2018-02-11T14:02:36.812Z,2824
2018-02-11T14:03:46.790Z,2956
2018-02-11T14:04:56.511Z,3136
2018-02-11T14:06:06.227Z,3508
2018-02-11T14:07:15.940Z,3688
2018-02-11T14:08:25.695Z,3696
2018-02-11T14:09:35.682Z,3596
2018-02-11T14:10:45.666Z,3468
2018-02-11T14:11:55.644Z,3448
2018-02-11T14:13:05.619Z,3392
2018-02-11T14:14:15.107Z,3228
2018-02-11T14:15:25.086Z,2940
2018-02-11T14:16:35.067Z,2984
2018-02-11T14:17:45.049Z,2948
2018-02-11T14:18:55.026Z,2780
2018-02-11T14:20:04.804Z,2632
2018-02-11T14:21:14.517Z,2644
2018-02-11T14:22:24.495Z,2676
2018-02-11T14:23:34.475Z,2692
2018-02-11T14:24:44.451Z,2656
2018-02-11T14:25:53.903Z,2664
2018-02-11T14:27:03.997Z,2564
2018-02-11T14:28:13.720Z,2716
2018-02-11T14:29:23.440Z,2876
2018-02-11T14:30:33.425Z,2932
2018-02-11T14:31:43.137Z,3012
2018-02-11T14:32:52.583Z,3004
2018-02-11T14:34:02.295Z,3068
2018-02-11T14:35:12.280Z,3048
2018-02-11T14:36:22.263Z,2896
2018-02-11T14:37:32.136Z,2784
2018-02-11T14:38:41.851Z,2828
2018-02-11T14:39:51.562Z,2792
2018-02-11T14:41:01.537Z,2780
2018-02-11T14:42:11.529Z,2692
2018-02-11T14:43:21.519Z,2672
2018-02-11T14:44:31.495Z,2616
2018-02-11T14:45:41.210Z,2712
2018-02-11T14:46:50.661Z,2824
2018-02-11T14:48:00.693Z,3020
2018-02-11T14:49:10.418Z,3096
2018-02-11T14:50:20.407Z,3104
2018-02-11T14:51:30.122Z,3052
2018-02-11T14:52:39.830Z,2988
2018-02-11T14:53:49.829Z,3020
2018-02-11T14:54:59.542Z,2992
2018-02-11T14:56:09.524Z,2920
2018-02-11T14:57:19.236Z,2768
2018-02-11T14:58:28.976Z,2500
2018-02-11T14:59:38.160Z,2348
2018-02-11T15:00:47.612Z,2156
2018-02-11T15:01:57.591Z,1984
2018-02-11T15:03:07.569Z,1836
2018-02-11T15:04:17.283Z,1644
2018-02-11T15:05:27.001Z,1440
2018-02-11T15:06:36.773Z,1236
2018-02-11T15:07:46.746Z,1072
2018-02-11T15:08:56.461Z,928
2018-02-11T15:10:06.439Z,784
2018-02-11T15:11:16.164Z,768
2018-02-11T15:12:26.138Z,740
2018-02-11T15:13:35.851Z,688
2018-02-11T15:14:45.558Z,672
2018-02-11T15:15:55.537Z,656
2018-02-11T15:17:05.521Z,640
2018-02-11T15:18:15.503Z,612
2018-02-11T15:19:24.952Z,556
2018-02-11T15:20:34.667Z,508
2018-02-11T15:21:44.646Z,480
2018-02-11T15:22:54.099Z,456
2018-02-11T15:24:03.551Z,448
2018-02-11T15:25:13.536Z,440
2018-02-11T15:26:23.525Z,412
2018-02-11T15:27:33.238Z,400
2018-02-11T15:28:42.956Z,364
2018-02-11T15:29:52.928Z,328
2018-02-11T15:31:02.643Z,288
2018-02-11T15:32:12.089Z,260
2018-02-11T15:33:22.070Z,232
2018-02-11T15:34:32.046Z,228
2018-02-11T15:35:42.020Z,216
2018-02-11T15:36:51.999Z,192
2018-02-11T15:38:01.989Z,172
2018-02-11T15:39:11.971Z,160
2018-02-11T15:40:22.034Z,160
2018-02-11T15:41:31.755Z,152
2018-02-11T15:42:41.743Z,136
2018-02-11T15:43:51.462Z,128
2018-02-11T15:45:01.232Z,124
2018-02-11T15:46:11.211Z,124
2018-02-11T15:47:20.925Z,120
2018-02-11T15:48:30.901Z,116
2018-02-11T15:49:40.614Z,116
2018-02-11T15:50:50.328Z,112
2018-02-11T15:51:59.782Z,104
2018-02-11T15:53:09.761Z,92
2018-02-11T15:54:19.209Z,84
2018-02-11T15:55:28.928Z,76
2018-02-11T15:56:38.913Z,68
2018-02-11T15:57:48.624Z,64
2018-02-11T15:58:58.648Z,56
2018-02-11T16:00:08.460Z,48
2018-02-11T16:01:18.223Z,44
2018-02-11T16:02:28.210Z,36
2018-02-11T16:03:37.671Z,32
2018-02-11T16:04:47.387Z,32
2018-02-11T16:05:57.105Z,28
2018-02-11T16:07:06.820Z,28
2018-02-11T16:08:16.808Z,24
2018-02-11T16:09:26.281Z,20
2018-02-11T16:10:36.045Z,20
2018-02-11T16:11:46.025Z,16
2018-02-11T16:12:56.004Z,16
2018-02-11T16:14:05.717Z,12
2018-02-11T16:15:15.434Z,12
2018-02-11T16:16:25.203Z,12
2018-02-11T16:17:35.205Z,12
2018-02-11T16:18:45.188Z,8